Time;durP1;ratioP1;P1;durP2;ratioP2;P2;SDS_P1;SDS_P2;PMS_P1;PMS_P2;Temp;Humidity;BMP_temperature;BMP_pressure;BME280_temperature;BME280_humidity;BME280_pressure;Samples;Min_cycle;Max_cycle;Signal;HPM_P1;HPM_P2
2021/10/09 00:01:24;;;;;;;52.90;28.48;;;10.30;99.90;;;;;;4859221;29;20073;-90
2021/10/09 00:03:50;;;;;;;54.78;27.05;;;10.30;99.90;;;;;;4858052;29;20045;-89
2021/10/09 00:06:17;;;;;;;56.95;29.30;;;10.30;99.90;;;;;;4855623;29;20062;-91
2021/10/09 00:08:43;;;;;;;59.70;30.30;;;10.20;99.90;;;;;;4860581;29;20128;-92
2021/10/09 00:11:16;;;;;;;62.17;29.35;;;10.20;99.90;;;;;;4849442;29;20072;-91
2021/10/09 00:13:41;;;;;;;61.97;28.00;;;10.20;99.90;;;;;;4849724;29;20053;-91
2021/10/09 00:16:07;;;;;;;57.42;27.98;;;10.20;99.90;;;;;;4864927;29;20378;-91
2021/10/09 00:18:33;;;;;;;50.65;27.60;;;10.20;99.90;;;;;;4865038;29;20139;-90
2021/10/09 00:20:58;;;;;;;70.07;30.38;;;10.20;99.90;;;;;;4863213;29;20386;-90
2021/10/09 00:23:24;;;;;;;58.60;29.50;;;10.10;99.90;;;;;;4832757;29;20104;-90
2021/10/09 00:25:50;;;;;;;67.22;32.47;;;10.10;99.90;;;;;;4847736;29;20045;-90
2021/10/09 00:28:16;;;;;;;65.32;30.83;;;10.10;99.90;;;;;;4850141;29;20457;-91
2021/10/09 00:30:41;;;;;;;62.28;28.85;;;10.10;99.90;;;;;;4862640;29;20314;-90
2021/10/09 00:33:07;;;;;;;51.75;27.75;;;10.00;99.90;;;;;;4859840;29;20061;-90
2021/10/09 00:35:33;;;;;;;63.75;30.67;;;10.10;99.90;;;;;;4866456;29;20568;-90
2021/10/09 00:37:59;;;;;;;63.75;29.20;;;10.10;99.90;;;;;;4862516;29;20048;-89
2021/10/09 00:40:24;;;;;;;59.60;30.15;;;10.00;99.90;;;;;;4877419;29;20053;-90
2021/10/09 00:42:50;;;;;;;81.82;29.25;;;10.10;99.90;;;;;;4847703;29;20366;-91
2021/10/09 00:45:16;;;;;;;75.82;33.15;;;10.10;99.90;;;;;;4865895;29;20557;-90
2021/10/09 00:47:41;;;;;;;71.18;32.80;;;10.00;99.90;;;;;;4847565;29;20049;-90
2021/10/09 00:50:08;;;;;;;81.57;35.88;;;10.00;99.90;;;;;;4833029;29;20061;-90
2021/10/09 00:52:35;;;;;;;63.88;29.52;;;10.00;99.90;;;;;;4863381;29;20060;-89
2021/10/09 00:55:05;;;;;;;78.68;33.67;;;10.00;99.90;;;;;;4832827;29;20076;-90
2021/10/09 00:57:34;;;;;;;69.00;32.35;;;9.90;99.90;;;;;;4863880;29;20095;-90
2021/10/09 01:00:01;;;;;;;73.82;30.23;;;9.90;99.90;;;;;;4863795;29;20085;-90
2021/10/09 01:02:39;;;;;;;83.65;35.63;;;9.90;99.90;;;;;;4865042;29;20148;-90
2021/10/09 01:05:11;;;;;;;76.15;33.20;;;9.90;99.90;;;;;;4864267;29;20080;-90
2021/10/09 01:07:37;;;;;;;75.47;33.20;;;9.80;99.90;;;;;;4877316;29;20076;-89
2021/10/09 01:10:04;;;;;;;78.53;34.20;;;9.80;99.90;;;;;;4831982;29;20529;-89
2021/10/09 01:12:29;;;;;;;91.63;36.35;;;9.80;99.90;;;;;;4847356;29;20489;-89
2021/10/09 01:14:55;;;;;;;102.60;38.58;;;9.80;99.90;;;;;;4863470;29;20104;-89
2021/10/09 01:17:21;;;;;;;100.07;38.22;;;9.70;99.90;;;;;;4863843;29;20053;-89
2021/10/09 01:19:46;;;;;;;106.72;39.30;;;9.70;99.90;;;;;;4818422;29;20044;-89
2021/10/09 01:22:13;;;;;;;106.57;38.78;;;9.70;99.90;;;;;;4833438;29;20125;-89
2021/10/09 01:24:53;;;;;;;107.28;39.95;;;9.70;99.90;;;;;;4848713;29;20049;-89
2021/10/09 01:30:41;;;;;;;104.03;37.88;;;9.80;99.90;;;;;;4879970;29;19919;-93
2021/10/09 01:33:07;;;;;;;112.85;39.78;;;9.80;99.90;;;;;;4878245;29;20057;-90
2021/10/09 01:35:51;;;;;;;127.07;43.28;;;9.80;99.90;;;;;;4847661;29;20132;-91
2021/10/09 01:38:19;;;;;;;124.88;41.60;;;9.80;99.90;;;;;;4848246;29;20056;-91
2021/10/09 01:40:45;;;;;;;132.38;42.78;;;9.80;99.90;;;;;;4863016;29;20049;-92
2021/10/09 01:43:12;;;;;;;128.77;43.05;;;9.80;99.90;;;;;;4875616;29;20056;-90
2021/10/09 01:45:41;;;;;;;119.35;42.15;;;9.80;99.90;;;;;;4863479;29;20057;-88
2021/10/09 01:48:06;;;;;;;118.00;41.90;;;9.80;99.90;;;;;;4867516;29;20100;-89
2021/10/09 01:50:32;;;;;;;125.13;43.40;;;9.80;99.90;;;;;;4863390;29;20139;-89
2021/10/09 01:52:59;;;;;;;129.85;45.08;;;9.80;99.90;;;;;;4863333;29;20190;-89
2021/10/09 01:55:24;;;;;;;130.35;44.65;;;9.90;99.90;;;;;;4863453;29;20602;-88
2021/10/09 01:57:50;;;;;;;148.27;47.50;;;9.90;99.90;;;;;;4863531;29;20144;-89
2021/10/09 02:04:27;;;;;;;381.13;60.65;;;10.10;99.90;;;;;;4879630;29;20393;-89
2021/10/09 02:10:43;;;;;;;440.05;63.28;;;10.10;99.90;;;;;;4883307;29;20503;-89
2021/10/09 02:13:34;;;;;;;288.60;50.88;;;10.10;99.90;;;;;;4867010;29;20092;-89
2021/10/09 02:16:09;;;;;;;265.00;43.88;;;10.10;99.90;;;;;;4866074;29;20053;-89
2021/10/09 02:26:29;;;;;;;261.75;48.55;;;10.10;99.90;;;;;;4865127;29;20045;-90
2021/10/09 02:28:55;;;;;;;291.38;51.50;;;10.10;99.90;;;;;;4880251;29;20045;-90
2021/10/09 02:31:21;;;;;;;334.17;57.40;;;10.10;99.90;;;;;;4865237;29;20088;-90
2021/10/09 02:33:46;;;;;;;237.23;46.38;;;10.10;99.90;;;;;;4866126;29;20085;-91
2021/10/09 02:36:12;;;;;;;270.05;51.78;;;10.10;99.90;;;;;;4865577;29;20053;-89
2021/10/09 02:38:38;;;;;;;262.20;54.45;;;10.10;99.90;;;;;;4834337;29;20062;-90
2021/10/09 02:41:04;;;;;;;179.20;43.58;;;10.10;99.90;;;;;;4848712;29;20508;-90
2021/10/09 02:43:30;;;;;;;199.73;47.88;;;10.10;99.90;;;;;;4833136;29;20041;-89
2021/10/09 02:45:55;;;;;;;178.02;43.70;;;10.10;99.90;;;;;;4861301;29;20048;-90
2021/10/09 02:48:21;;;;;;;242.30;48.15;;;10.10;99.90;;;;;;4848954;29;20040;-90
2021/10/09 02:50:47;;;;;;;258.60;54.33;;;10.10;99.90;;;;;;4849317;29;20052;-92
2021/10/09 02:53:13;;;;;;;216.55;48.97;;;10.10;99.90;;;;;;4833989;29;20109;-89
2021/10/09 02:55:39;;;;;;;187.80;47.00;;;10.10;99.90;;;;;;4848995;29;20049;-89
2021/10/09 02:58:05;;;;;;;202.35;49.22;;;10.10;99.90;;;;;;4868061;29;20068;-90
2021/10/09 03:00:31;;;;;;;151.02;44.70;;;10.00;99.90;;;;;;4863739;29;20395;-90
2021/10/09 03:02:56;;;;;;;136.25;43.20;;;10.10;99.90;;;;;;4848275;29;20057;-90
2021/10/09 03:05:22;;;;;;;144.90;43.60;;;10.10;99.90;;;;;;4863999;29;20057;-90
2021/10/09 03:07:48;;;;;;;168.80;47.70;;;10.10;99.90;;;;;;4863501;29;20049;-94
2021/10/09 03:10:14;;;;;;;155.63;46.58;;;10.00;99.90;;;;;;4866898;29;20052;-91
2021/10/09 03:12:40;;;;;;;157.23;46.83;;;10.00;99.90;;;;;;4866118;29;20131;-92
2021/10/09 03:15:08;;;;;;;188.52;51.90;;;10.00;99.90;;;;;;4864758;29;20049;-90
2021/10/09 03:17:34;;;;;;;120.78;43.15;;;10.00;99.90;;;;;;4867257;29;20071;-90
2021/10/09 03:20:00;;;;;;;155.15;45.63;;;10.00;99.90;;;;;;4863319;29;20124;-91
2021/10/09 03:22:26;;;;;;;184.40;52.80;;;10.00;99.90;;;;;;4863534;29;20048;-91
2021/10/09 03:24:52;;;;;;;176.27;49.38;;;10.00;99.90;;;;;;4862777;29;20053;-94
2021/10/09 03:27:17;;;;;;;140.40;46.92;;;10.10;99.90;;;;;;4863575;29;20048;-91
2021/10/09 03:29:43;;;;;;;194.40;52.65;;;10.00;99.90;;;;;;4847568;29;20097;-91
2021/10/09 03:32:09;;;;;;;203.50;52.78;;;10.00;99.90;;;;;;4847953;29;20117;-91
2021/10/09 03:34:35;;;;;;;143.40;44.33;;;10.00;99.90;;;;;;4863199;29;20548;-91
2021/10/09 03:37:06;;;;;;;159.70;45.15;;;10.00;99.90;;;;;;4863003;29;20053;-91
2021/10/09 03:39:33;;;;;;;;;;;10.00;99.90;;;;;;4863425;29;20136;-92
2021/10/09 03:42:07;;;;;;;204.00;51.85;;;10.10;99.90;;;;;;4862480;29;19934;-91
2021/10/09 03:44:37;;;;;;;181.38;49.95;;;10.00;99.90;;;;;;4862481;29;20091;-91
2021/10/09 03:49:46;;;;;;;188.07;51.47;;;10.10;99.90;;;;;;4862824;29;20053;-93
2021/10/09 03:54:55;;;;;;;155.85;48.65;;;10.00;99.90;;;;;;4877444;29;20053;-93
2021/10/09 03:57:21;;;;;;;146.65;45.40;;;10.00;99.90;;;;;;4862661;29;20049;-91
2021/10/09 03:59:47;;;;;;;146.73;47.47;;;10.00;99.90;;;;;;4862052;29;20053;-92
2021/10/09 04:02:12;;;;;;;209.27;55.75;;;10.00;99.90;;;;;;4862155;29;20592;-92
2021/10/09 04:04:38;;;;;;;152.05;48.67;;;10.00;99.90;;;;;;4878181;29;20134;-92
2021/10/09 04:07:04;;;;;;;146.43;48.10;;;10.00;99.90;;;;;;4862394;29;20045;-92
2021/10/09 04:09:29;;;;;;;124.80;45.28;;;10.00;99.90;;;;;;4863067;29;20041;-92
2021/10/09 04:11:55;;;;;;;148.55;50.35;;;10.00;99.90;;;;;;4862481;29;20127;-93
2021/10/09 04:14:20;;;;;;;190.23;56.22;;;10.00;99.90;;;;;;4878103;29;20045;-92
2021/10/09 04:16:46;;;;;;;146.90;49.58;;;10.00;99.90;;;;;;4862610;29;20113;-91
2021/10/09 04:19:12;;;;;;;141.65;46.40;;;10.00;99.90;;;;;;4861576;29;20112;-92
2021/10/09 04:21:37;;;;;;;130.43;46.22;;;10.00;99.90;;;;;;4862402;29;20060;-91
2021/10/09 04:24:03;;;;;;;156.00;52.10;;;10.00;99.90;;;;;;4877575;29;20055;-90
2021/10/09 04:26:29;;;;;;;136.00;48.08;;;10.00;99.90;;;;;;4862714;29;20041;-90
2021/10/09 04:28:55;;;;;;;116.35;44.72;;;10.00;99.90;;;;;;4861656;29;20056;-94
2021/10/09 04:31:20;;;;;;;116.65;44.88;;;10.00;99.90;;;;;;4862116;29;20100;-90
2021/10/09 04:33:46;;;;;;;147.95;49.47;;;9.90;99.90;;;;;;4862407;29;20527;-90
2021/10/09 04:36:12;;;;;;;128.60;46.40;;;9.90;99.90;;;;;;4862182;29;20061;-91
2021/10/09 04:38:38;;;;;;;128.23;44.47;;;10.00;99.90;;;;;;4862502;29;20155;-90
2021/10/09 04:41:04;;;;;;;123.55;45.15;;;10.00;99.90;;;;;;4862079;29;20541;-90
2021/10/09 04:43:29;;;;;;;130.23;46.55;;;9.90;99.90;;;;;;4862037;29;20096;-92
2021/10/09 04:45:55;;;;;;;120.15;45.65;;;9.90;99.90;;;;;;4862054;29;20088;-94
2021/10/09 04:48:21;;;;;;;132.73;46.35;;;9.90;99.90;;;;;;4861408;29;20044;-90
2021/10/09 04:50:46;;;;;;;106.25;40.03;;;9.90;99.90;;;;;;4862463;29;20052;-90
2021/10/09 04:53:12;;;;;;;114.00;43.80;;;9.90;99.90;;;;;;4863116;29;20068;-91
2021/10/09 04:55:38;;;;;;;128.60;47.05;;;9.90;99.90;;;;;;4862777;29;20049;-90
2021/10/09 04:58:03;;;;;;;115.50;46.78;;;9.90;99.90;;;;;;4862135;29;20056;-92
2021/10/09 05:00:29;;;;;;;123.05;46.90;;;9.90;99.90;;;;;;4864808;29;20052;-92
2021/10/09 05:02:55;;;;;;;117.30;46.90;;;9.90;99.90;;;;;;4870079;29;20057;-91
2021/10/09 05:05:21;;;;;;;118.10;44.35;;;9.80;99.90;;;;;;4861808;29;20482;-91
2021/10/09 05:07:46;;;;;;;115.47;45.08;;;9.90;99.90;;;;;;4846414;29;20041;-92
2021/10/09 05:10:12;;;;;;;122.15;46.13;;;9.80;99.90;;;;;;4861091;29;20045;-92
2021/10/09 05:12:38;;;;;;;106.68;43.72;;;9.80;99.90;;;;;;4861937;29;20057;-92
2021/10/09 05:15:07;;;;;;;112.97;44.78;;;9.80;99.90;;;;;;4861751;29;20107;-91
2021/10/09 05:17:33;;;;;;;113.03;46.60;;;9.80;99.90;;;;;;4862026;29;20084;-91
2021/10/09 05:19:58;;;;;;;121.93;46.92;;;9.80;99.90;;;;;;4863852;29;20479;-93
2021/10/09 05:22:24;;;;;;;121.40;47.22;;;9.80;99.90;;;;;;4873376;29;20052;-91
2021/10/09 05:24:53;;;;;;;113.63;42.85;;;9.70;99.90;;;;;;4862206;29;20059;-92
2021/10/09 05:27:19;;;;;;;122.35;46.30;;;9.80;99.90;;;;;;4846126;29;20477;-91
2021/10/09 05:29:47;;;;;;;105.97;44.40;;;9.80;99.90;;;;;;4846224;29;20059;-91
2021/10/09 05:32:19;;;;;;;96.43;41.88;;;9.80;99.90;;;;;;4860941;29;20540;-91
2021/10/09 05:34:45;;;;;;;114.03;44.78;;;9.70;99.90;;;;;;4847264;29;20076;-91
2021/10/09 05:37:11;;;;;;;113.38;43.25;;;9.70;99.90;;;;;;4884798;29;20053;-93
2021/10/09 05:39:36;;;;;;;111.72;44.88;;;9.70;99.90;;;;;;4861023;29;20055;-94
2021/10/09 05:42:02;;;;;;;119.75;44.83;;;9.70;99.90;;;;;;4861120;29;20086;-94
2021/10/09 05:44:28;;;;;;;117.63;43.65;;;9.70;99.90;;;;;;4861648;29;20461;-92
2021/10/09 05:46:54;;;;;;;138.77;47.47;;;9.60;99.90;;;;;;4861671;29;20496;-91
2021/10/09 05:49:19;;;;;;;113.53;44.72;;;9.60;99.90;;;;;;4860482;29;20116;-92
2021/10/09 05:52:00;;;;;;;131.25;47.42;;;9.60;99.90;;;;;;4874586;29;20473;-91
2021/10/09 06:02:16;;;;;;;137.40;49.35;;;9.50;99.90;;;;;;4877377;29;20151;-92
2021/10/09 06:38:12;;;;;;;126.72;48.50;;;9.40;99.90;;;;;;4859209;29;20057;-90
2021/10/09 06:59:37;;;;;;;105.05;46.72;;;9.50;99.90;;;;;;4880633;29;20057;-88
2021/10/09 07:02:04;;;;;;;99.25;46.60;;;9.50;99.90;;;;;;4864682;29;20067;-88
2021/10/09 07:04:30;;;;;;;90.72;43.00;;;9.50;99.90;;;;;;4850638;29;20045;-88
2021/10/09 07:06:57;;;;;;;96.38;46.08;;;9.50;99.90;;;;;;4864276;29;20121;-90
2021/10/09 07:09:22;;;;;;;83.07;41.03;;;9.50;99.90;;;;;;4863417;29;20118;-89
2021/10/09 07:11:48;;;;;;;76.35;38.97;;;9.50;99.90;;;;;;4864940;29;20409;-90
2021/10/09 07:14:14;;;;;;;81.35;39.90;;;9.60;99.90;;;;;;4864145;29;20109;-90
2021/10/09 07:16:39;;;;;;;76.88;39.33;;;9.60;99.90;;;;;;4854217;29;20057;-90
2021/10/09 07:19:05;;;;;;;77.00;39.45;;;9.50;99.90;;;;;;4834561;29;20052;-90
2021/10/09 07:21:31;;;;;;;77.22;39.60;;;9.60;99.90;;;;;;4863877;29;20490;-90
2021/10/09 07:23:56;;;;;;;85.03;40.45;;;9.60;99.90;;;;;;4849223;29;20442;-89
2021/10/09 07:26:22;;;;;;;81.07;40.75;;;9.60;99.90;;;;;;4863454;29;20109;-88
2021/10/09 07:28:49;;;;;;;79.18;41.75;;;9.60;99.90;;;;;;4862076;29;20169;-90
2021/10/09 07:31:16;;;;;;;83.32;43.42;;;9.60;99.90;;;;;;4843739;29;20517;-90
2021/10/09 07:33:42;;;;;;;81.35;43.55;;;9.60;99.90;;;;;;4867015;29;20051;-89
2021/10/09 07:36:08;;;;;;;88.90;47.45;;;9.70;99.90;;;;;;4866607;29;20075;-92
2021/10/09 07:38:33;;;;;;;93.47;48.90;;;9.70;99.90;;;;;;4847410;29;20049;-89
2021/10/09 07:40:59;;;;;;;92.43;47.08;;;9.70;99.90;;;;;;4847823;29;20064;-91
2021/10/09 07:43:25;;;;;;;85.30;45.45;;;9.80;99.90;;;;;;4846702;29;20049;-87
2021/10/09 07:45:51;;;;;;;83.40;44.22;;;9.80;99.90;;;;;;4858670;29;20081;-86
2021/10/09 07:48:16;;;;;;;72.90;43.30;;;9.80;99.90;;;;;;4857569;29;20388;-89
2021/10/09 07:50:42;;;;;;;73.25;42.80;;;9.80;99.90;;;;;;4858590;29;20061;-92
2021/10/09 07:53:09;;;;;;;72.05;41.33;;;9.90;99.90;;;;;;4863859;29;20080;-91
2021/10/09 07:56:12;;;;;;;66.57;39.05;;;10.00;99.90;;;;;;4850203;29;20101;-90
2021/10/09 07:59:05;;;;;;;65.18;38.88;;;10.00;99.90;;;;;;4865092;29;20053;-90
2021/10/09 08:01:32;;;;;;;67.60;38.65;;;10.00;99.90;;;;;;4879124;29;20053;-90
2021/10/09 08:04:43;;;;;;;70.30;39.72;;;10.00;99.90;;;;;;4847401;29;20060;-91
2021/10/09 08:07:08;;;;;;;71.95;38.58;;;10.10;99.90;;;;;;4846776;29;20132;-92
2021/10/09 08:09:35;;;;;;;61.65;36.35;;;10.20;99.90;;;;;;4840814;29;20549;-91
2021/10/09 08:12:02;;;;;;;68.53;37.05;;;10.20;99.90;;;;;;4865153;29;20057;-92
2021/10/09 08:18:21;;;;;;;61.72;38.53;;;10.20;99.90;;;;;;4881173;29;20044;-92
2021/10/09 08:42:17;;;;;;;54.00;32.75;;;10.80;99.90;;;;;;4861766;29;20118;-92
2021/10/09 08:48:29;;;;;;;49.40;28.20;;;10.90;99.90;;;;;;4862181;29;20109;-93
2021/10/09 08:59:07;;;;;;;45.83;25.70;;;11.00;99.90;;;;;;4880362;29;20044;-92
2021/10/09 09:25:50;;;;;;;32.13;19.83;;;11.10;99.90;;;;;;4861888;29;20094;-91
2021/10/09 09:32:54;;;;;;;30.83;18.48;;;11.20;99.90;;;;;;4841550;29;20471;-91
2021/10/09 09:39:44;;;;;;;35.72;18.75;;;11.30;99.90;;;;;;4841580;29;20550;-90
2021/10/09 09:45:51;;;;;;;;;;;11.40;99.90;;;;;;4824602;29;20034;-90
2021/10/09 09:52:27;;;;;;;51.00;22.80;;;11.60;99.90;;;;;;4822944;29;20037;-90
2021/10/09 09:54:55;;;;;;;33.25;18.52;;;11.70;99.90;;;;;;4823243;29;20066;-91
2021/10/09 09:57:20;;;;;;;31.25;17.20;;;11.70;99.90;;;;;;4807913;29;20062;-91
2021/10/09 10:00:05;;;;;;;40.25;19.13;;;11.80;99.90;;;;;;4808527;29;20062;-90
2021/10/09 10:02:37;;;;;;;32.25;16.55;;;11.90;99.90;;;;;;4828961;29;20449;-91
2021/10/09 10:05:24;;;;;;;30.00;18.02;;;12.00;99.90;;;;;;4825386;29;20148;-89
2021/10/09 10:07:51;;;;;;;41.03;16.33;;;12.00;99.90;;;;;;4827327;29;20046;-90
2021/10/09 10:10:17;;;;;;;29.02;17.05;;;12.10;99.90;;;;;;4840537;29;20053;-90
2021/10/09 10:12:46;;;;;;;34.85;17.10;;;12.10;99.90;;;;;;4845004;29;20105;-90
2021/10/09 10:15:16;;;;;;;30.50;17.27;;;12.20;99.90;;;;;;4829296;29;20046;-90
2021/10/09 10:17:41;;;;;;;30.67;16.23;;;12.20;99.90;;;;;;4829377;29;20553;-90
2021/10/09 10:20:17;;;;;;;27.35;17.15;;;12.30;99.90;;;;;;4844608;29;20136;-90
2021/10/09 10:22:43;;;;;;;25.92;16.60;;;12.30;99.90;;;;;;4844105;29;20765;-90
2021/10/09 10:25:24;;;;;;;28.23;15.98;;;12.40;99.90;;;;;;4844234;29;20052;-91
2021/10/09 10:28:09;;;;;;;44.53;22.73;;;12.40;99.90;;;;;;4847058;29;20045;-91
2021/10/09 10:30:44;;;;;;;33.72;19.42;;;12.50;99.90;;;;;;4847796;29;20060;-92
2021/10/09 10:33:10;;;;;;;33.40;17.23;;;12.60;99.90;;;;;;4817420;29;20057;-91
2021/10/09 10:35:36;;;;;;;29.75;16.58;;;12.60;99.90;;;;;;4848382;29;20046;-91
2021/10/09 10:38:11;;;;;;;29.15;15.18;;;12.60;99.90;;;;;;4848175;29;20057;-90
2021/10/09 10:40:54;;;;;;;39.85;18.83;;;12.60;99.90;;;;;;4848128;29;20096;-91
2021/10/09 10:52:52;;;;;;;22.52;12.10;;;12.90;99.90;;;;;;4859540;29;20056;-90
2021/10/09 10:55:18;;;;;;;30.02;13.15;;;13.00;99.90;;;;;;4849690;29;20057;-92
2021/10/09 11:02:20;;;;;;;22.90;12.15;;;13.20;99.90;;;;;;4861475;29;20059;-90
2021/10/09 11:05:25;;;;;;;22.33;12.32;;;13.20;99.90;;;;;;4862249;29;20057;-90
2021/10/09 11:07:52;;;;;;;28.15;13.50;;;13.30;99.90;;;;;;4867176;29;20560;-91
2021/10/09 11:10:19;;;;;;;38.03;11.82;;;13.40;99.90;;;;;;4852674;29;20060;-91
2021/10/09 11:19:50;;;;;;;29.70;11.30;;;13.60;99.90;;;;;;4899327;29;20001;-90
2021/10/09 11:25:57;;;;;;;24.92;10.75;;;13.70;99.90;;;;;;4899003;29;20096;-90
2021/10/09 11:28:29;;;;;;;26.00;11.05;;;13.80;99.90;;;;;;4883492;29;20052;-90
2021/10/09 11:35:29;;;;;;;21.27;10.60;;;13.90;99.90;;;;;;4881816;29;20037;-90
2021/10/09 11:37:54;;;;;;;19.65;9.20;;;13.90;99.90;;;;;;4867223;29;20049;-91
2021/10/09 11:58:18;;;;;;;23.75;10.13;;;14.20;99.90;;;;;;4877673;29;20449;-90
2021/10/09 12:00:44;;;;;;;17.95;8.73;;;14.20;99.90;;;;;;4862357;29;20133;-91
2021/10/09 12:11:24;;;;;;;21.77;8.43;;;14.40;99.90;;;;;;4881961;29;20071;-91
2021/10/09 12:14:01;;;;;;;17.80;9.48;;;14.50;99.90;;;;;;4865007;29;20131;-91
2021/10/09 12:20:26;;;;;;;22.33;9.25;;;14.70;99.90;;;;;;4881373;29;20124;-91
2021/10/09 12:23:32;;;;;;;21.75;8.40;;;14.80;99.90;;;;;;4864637;29;20482;-91
2021/10/09 12:26:17;;;;;;;19.35;8.40;;;14.80;99.90;;;;;;4865126;29;20201;-91
2021/10/09 12:29:21;;;;;;;25.38;9.50;;;14.90;99.90;;;;;;4865019;29;20059;-91
2021/10/09 12:36:30;;;;;;;23.35;9.35;;;15.00;99.90;;;;;;4881060;29;20402;-92
2021/10/09 12:47:09;;;;;;;18.63;8.18;;;15.40;99.90;;;;;;4860458;29;20037;-91
2021/10/09 12:53:15;;;;;;;24.35;8.60;;;15.90;99.90;;;;;;4859137;29;20077;-90
2021/10/09 13:04:01;;;;;;;14.07;7.20;;;16.40;99.90;;;;;;4841163;29;20042;-92
2021/10/09 13:11:06;;;;;;;18.80;7.75;;;16.80;99.90;;;;;;4860810;29;20497;-92
2021/10/09 13:17:05;;;;;;;22.02;8.07;;;16.90;99.90;;;;;;4845833;29;20045;-92
2021/10/09 13:19:31;;;;;;;15.48;8.15;;;17.00;99.90;;;;;;4830636;29;20160;-92
2021/10/09 13:21:56;;;;;;;22.83;9.20;;;17.00;99.90;;;;;;4845869;29;20102;-91
2021/10/09 13:28:04;;;;;;;16.88;8.48;;;17.30;99.90;;;;;;4861499;29;20103;-91
2021/10/09 13:30:30;;;;;;;23.15;8.30;;;17.40;99.90;;;;;;4845186;29;20061;-92
2021/10/09 13:32:56;;;;;;;19.02;7.55;;;17.40;99.90;;;;;;4830329;29;20049;-92
2021/10/09 13:35:22;;;;;;;17.00;8.82;;;17.50;99.90;;;;;;4830259;29;20049;-93
2021/10/09 13:37:49;;;;;;;17.48;8.13;;;17.70;99.90;;;;;;4814834;29;20049;-92
2021/10/09 13:40:15;;;;;;;13.45;7.82;;;17.80;99.90;;;;;;4844851;29;20057;-92
2021/10/09 13:42:41;;;;;;;20.60;8.07;;;17.90;99.90;;;;;;4814492;29;20041;-91
2021/10/09 13:45:07;;;;;;;21.77;8.25;;;18.00;99.90;;;;;;4843867;29;20046;-92
2021/10/09 13:47:34;;;;;;;20.45;8.40;;;18.10;99.90;;;;;;4844782;29;20061;-92
2021/10/09 13:49:59;;;;;;;16.95;8.32;;;18.30;99.90;;;;;;4844607;29;20575;-93
2021/10/09 13:52:25;;;;;;;18.60;7.95;;;18.20;99.90;;;;;;4829669;29;20087;-91
2021/10/09 13:54:51;;;;;;;15.10;7.90;;;18.40;99.90;;;;;;4813307;29;20049;-91
2021/10/09 13:57:16;;;;;;;20.80;8.60;;;18.50;99.90;;;;;;4829776;29;20054;-93
2021/10/09 13:59:42;;;;;;;15.43;8.23;;;18.50;99.90;;;;;;4843988;29;20061;-92
2021/10/09 14:02:09;;;;;;;20.25;8.98;;;18.60;99.90;;;;;;4820318;29;20049;-93
2021/10/09 14:04:38;;;;;;;14.82;8.35;;;18.60;99.90;;;;;;4848372;29;20049;-93
2021/10/09 14:07:05;;;;;;;19.63;8.77;;;18.80;99.90;;;;;;4832437;29;20049;-93
2021/10/09 14:09:31;;;;;;;18.05;8.07;;;18.90;99.90;;;;;;4853075;29;20056;-92
2021/10/09 14:11:56;;;;;;;18.88;8.43;;;18.90;99.90;;;;;;4865143;29;20703;-93
2021/10/09 14:14:25;;;;;;;22.67;9.05;;;18.90;99.90;;;;;;4850678;29;20512;-93
2021/10/09 14:16:52;;;;;;;18.73;9.13;;;18.70;99.90;;;;;;4850770;29;20076;-92
2021/10/09 14:19:18;;;;;;;16.85;8.50;;;18.70;99.90;;;;;;4850226;29;20058;-95
2021/10/09 14:21:44;;;;;;;25.55;10.90;;;18.90;99.90;;;;;;4849596;29;20055;-93
2021/10/09 14:24:09;;;;;;;20.58;10.30;;;19.00;99.90;;;;;;4865154;29;20053;-92
2021/10/09 14:26:36;;;;;;;26.88;9.30;;;19.00;99.90;;;;;;4869821;29;20055;-92
2021/10/09 14:29:02;;;;;;;21.23;9.82;;;19.20;99.90;;;;;;4857119;29;20045;-93
2021/10/09 14:31:29;;;;;;;15.55;8.38;;;19.20;99.90;;;;;;4850268;29;20049;-93
2021/10/09 14:33:55;;;;;;;17.13;8.93;;;19.10;99.90;;;;;;4849240;29;20045;-92
2021/10/09 14:36:21;;;;;;;26.27;9.43;;;19.20;99.90;;;;;;4834357;29;20053;-92
2021/10/09 14:38:46;;;;;;;28.23;11.55;;;19.20;99.90;;;;;;4833492;29;20132;-93
2021/10/09 14:41:14;;;;;;;27.55;9.52;;;19.30;99.40;;;;;;4864816;29;20065;-93
2021/10/09 14:43:40;;;;;;;29.45;10.15;;;19.30;99.90;;;;;;4849213;29;20053;-94
2021/10/09 14:48:45;;;;;;;19.58;9.50;;;19.60;99.90;;;;;;4873130;29;20088;-92
2021/10/09 14:54:39;;;;;;;20.80;9.38;;;19.40;99.90;;;;;;4865709;29;20580;-92
2021/10/09 15:20:16;;;;;;;25.88;9.45;;;19.30;99.90;;;;;;4876435;29;20603;-92
2021/10/09 15:22:42;;;;;;;16.85;9.57;;;19.30;99.90;;;;;;4863486;29;20040;-93
2021/10/09 15:25:08;;;;;;;18.88;8.23;;;19.30;99.40;;;;;;4863528;29;20061;-93
2021/10/09 15:27:34;;;;;;;24.45;8.90;;;19.40;99.90;;;;;;4863843;29;20053;-95
2021/10/09 15:30:00;;;;;;;17.45;9.10;;;19.40;99.90;;;;;;4847908;29;20149;-92
2021/10/09 15:32:26;;;;;;;17.60;9.90;;;19.40;99.90;;;;;;4851303;29;20048;-92
2021/10/09 15:34:52;;;;;;;19.25;9.40;;;19.20;99.90;;;;;;4864486;29;20041;-92
2021/10/09 15:37:18;;;;;;;18.08;9.45;;;19.20;99.90;;;;;;4863807;29;20489;-92
2021/10/09 15:39:44;;;;;;;21.20;9.70;;;19.20;99.90;;;;;;4875306;29;20136;-94
2021/10/09 15:42:10;;;;;;;21.70;9.40;;;19.20;99.90;;;;;;4863475;29;20053;-92
2021/10/09 15:44:36;;;;;;;16.70;9.40;;;19.10;99.90;;;;;;4848122;29;20132;-93
2021/10/09 15:47:03;;;;;;;23.90;11.10;;;18.90;99.90;;;;;;4861357;29;20037;-92
2021/10/09 15:49:29;;;;;;;25.55;9.65;;;18.80;99.90;;;;;;4847560;29;20041;-92
2021/10/09 15:51:55;;;;;;;21.55;9.95;;;18.70;99.90;;;;;;4843418;29;20045;-92
2021/10/09 15:54:21;;;;;;;16.02;9.15;;;18.80;99.90;;;;;;4845049;29;20057;-92
2021/10/09 15:56:47;;;;;;;12.98;8.85;;;18.70;99.90;;;;;;4831423;29;20057;-94
2021/10/09 15:59:13;;;;;;;22.55;9.57;;;18.60;99.90;;;;;;4862674;29;20111;-93
2021/10/09 16:01:39;;;;;;;25.80;9.57;;;18.50;99.90;;;;;;4847856;29;20104;-93
2021/10/09 16:04:04;;;;;;;21.65;10.20;;;18.40;99.90;;;;;;4856511;29;20051;-94
2021/10/09 16:06:30;;;;;;;22.02;9.60;;;18.20;99.90;;;;;;4845224;29;20058;-93
2021/10/09 16:08:57;;;;;;;12.52;9.13;;;18.10;99.90;;;;;;4860481;29;20064;-92
2021/10/09 16:11:23;;;;;;;25.98;10.48;;;18.00;99.90;;;;;;4844912;29;20059;-91
2021/10/09 16:13:52;;;;;;;19.67;10.05;;;17.90;99.90;;;;;;4846590;29;20108;-95
2021/10/09 16:16:18;;;;;;;23.80;9.63;;;17.80;99.90;;;;;;4847075;29;20089;-93
2021/10/09 16:18:43;;;;;;;15.00;9.35;;;17.60;99.90;;;;;;4862381;29;20065;-93
2021/10/09 16:21:12;;;;;;;23.30;9.45;;;17.40;99.90;;;;;;4819076;29;20059;-93
2021/10/09 16:23:38;;;;;;;26.38;10.48;;;17.50;99.90;;;;;;4856025;29;20045;-94
2021/10/09 16:26:05;;;;;;;20.42;9.65;;;17.40;99.90;;;;;;4846212;29;20056;-93
2021/10/09 16:28:34;;;;;;;18.38;9.70;;;17.40;99.90;;;;;;4830613;29;20049;-90
2021/10/09 16:31:01;;;;;;;18.73;10.43;;;17.10;99.90;;;;;;4843381;29;20069;-91
2021/10/09 16:33:27;;;;;;;21.30;10.45;;;16.90;99.90;;;;;;4846744;29;20049;-90
2021/10/09 16:35:53;;;;;;;18.63;10.15;;;16.80;99.90;;;;;;4861425;29;20064;-89
2021/10/09 16:38:19;;;;;;;21.05;11.05;;;16.50;99.90;;;;;;4861017;29;20044;-90
2021/10/09 16:40:44;;;;;;;27.80;10.60;;;16.30;99.90;;;;;;4845818;29;20060;-89
2021/10/09 16:43:10;;;;;;;18.42;10.80;;;16.10;99.90;;;;;;4844709;29;20051;-89
2021/10/09 16:45:37;;;;;;;23.05;10.98;;;16.00;99.90;;;;;;4861212;29;20504;-91
2021/10/09 16:48:03;;;;;;;23.42;11.10;;;15.70;99.90;;;;;;4860333;29;20472;-90
2021/10/09 16:50:29;;;;;;;21.85;11.77;;;15.60;99.90;;;;;;4831966;29;20041;-89
2021/10/09 16:52:58;;;;;;;16.80;10.27;;;15.30;99.90;;;;;;4830346;29;20456;-89
2021/10/09 16:55:25;;;;;;;20.98;11.18;;;15.10;99.90;;;;;;4860780;29;20060;-89
2021/10/09 16:57:51;;;;;;;26.77;11.27;;;15.00;99.90;;;;;;4845238;29;20056;-91
2021/10/09 17:00:17;;;;;;;19.23;10.98;;;14.90;99.90;;;;;;4843957;29;20108;-89
2021/10/09 17:02:43;;;;;;;23.83;11.38;;;14.70;99.90;;;;;;4855881;29;20467;-87
2021/10/09 17:05:09;;;;;;;19.65;10.77;;;14.50;99.90;;;;;;4849912;29;20040;-93
2021/10/09 17:07:36;;;;;;;22.00;11.05;;;14.30;99.90;;;;;;4867956;29;20060;-88
2021/10/09 17:10:03;;;;;;;23.23;11.00;;;14.20;99.90;;;;;;4860041;29;20064;-89
2021/10/09 17:12:29;;;;;;;27.08;11.52;;;14.00;99.90;;;;;;4846159;29;20037;-90
2021/10/09 17:14:55;;;;;;;21.70;11.00;;;13.80;99.90;;;;;;4831607;29;20094;-88
2021/10/09 17:17:20;;;;;;;22.52;12.40;;;13.70;99.90;;;;;;4858435;29;20060;-89
2021/10/09 17:19:46;;;;;;;22.55;12.20;;;13.50;99.90;;;;;;4865862;29;20051;-85